Walcott, ND

12:50 PM CDT on July 31, 2014 (GMT -0500)
Open Plains ND (KNDWYNDM2) Elev 1056 ft | 46.25 °N, 97.12 °W | Change Station

Current weather conditions updated 9 minutes ago

Clear
Clear
88.2 °F
Feels Like 89 °F
N
1.1
Wind Variable Wind from ENE

Today is forecast to be nearly the same temperature as yesterday.

Today
High -- | Low -- °F
--% Chance of Precip.
Yesterday
High -- | Low -- °F
Precip. -- in
6:08 AM 9:00 PM
Waxing Crescent, 20% visible
Pressure 30.04 in
Visibility 10.0 miles
Clouds Clear
Heat Index 89 °F
Dew Point 62 °F
Humidity 42%
Rainfall 0.00 in
Snow Depth Not available.
UV 10 out of 12
Pollen 8.10 out of 12
Air Quality Not available.
Flu Activity Not available.
METAR KBWP 311730Z AUTO 33003KT 10SM CLR 26/10 A3004 RMK AO1

More Conditions Fewer Conditions

Pressure 30.04 in
Visibility 10.0 miles
Clouds Clear
Heat Index 89 °F
Dew Point 62 °F
Humidity 42%
Rainfall 0.00 in
Snow Depth Not available.
UV 10 out of 12
Pollen 8.10 out of 12
Air Quality Not available.
Flu Activity Not available.
METAR KBWP 311730Z AUTO 33003KT 10SM CLR 26/10 A3004 RMK AO1

More Conditions Fewer Conditions

10-Day Weather Forecast

Almanac

Astronomy

Jul. 31, 2014 Rise Set
Actual Time 6:08 AM CDT 9:00 PM CDT
Civil Twilight 5:32 AM CDT 9:35 PM CDT
Nautical Twilight 4:47 AM CDT 10:20 PM CDT
Astronomical Twilight 3:54 AM CDT 11:13 PM CDT
Moon 10:55 AM CDT 10:53 PM CDT
Length of Visible Light 16h 02m
Length of Day
14h 52m
Tomorrow will be 2m 33s shorter.
Waxing Crescent, 20% of the Moon is Illuminated
Today
Waxing Crescent
Aug 3
First Quarter
Aug 10
Full
Aug 17
Last Quarter
Aug 25
New

Today's Extremes

State Highs State Lows

Community

WunderPhotos

Upload Photos

1,739,386 photos uploaded!

Nearby

Snow Depth

Station Depth Elevation
No new snow has been reported.

Earthquake Activity

City Distance Mag. Time & Date
No recent earthquake activity has been reported nearby.
Minimum magnitude displayed is 2.5.

Coastal Water Temperatures

Place Temperature
No Stations Reporting

Nearby Weather Stations

Station Location Temp. Heat Index Dew Point Humidity Wind Precip. Elev Updated Type
Open Plains ND, Wyndmere, ND 88.2 °F 89 °F 62 °F 42% ENE  at  1.1 mph - / hr 1056 ft 12:41 PM CDT Normal
West Fargo Official, West Fargo, ND 83.7 °F 84 °F 60 °F 45% NNW  at  6.3 mph - / hr 900 ft 12:42 PM CDT Normal
Westport Beach, West Fargo, ND 81.9 °F 82 °F 60 °F 48% NW  at  6.8 mph - / hr 896 ft 12:41 PM CDT Normal
South Fargo, Fargo, ND 81.7 °F 81 °F 53 °F 37% NNW  at  6.0 mph 0.00 in / hr 902 ft 12:50 PM CDT Normal

Show More Stations Show Fewer Stations